createdAt,value
2023-05-14T00:00:09.138Z,245.14
2023-05-14T00:01:09.135Z,247.94
2023-05-14T00:02:09.146Z,240.81
2023-05-14T00:03:09.290Z,243.26
2023-05-14T00:04:09.168Z,242.87
2023-05-14T00:05:09.140Z,243.44
2023-05-14T00:06:09.154Z,244.68
2023-05-14T00:07:09.174Z,245.03
2023-05-14T00:08:09.149Z,242.61
2023-05-14T00:09:09.185Z,244.60
2023-05-14T00:10:09.156Z,244.59
2023-05-14T00:11:09.207Z,245.33
2023-05-14T00:12:09.168Z,242.56
2023-05-14T00:13:09.188Z,247.39
2023-05-14T00:14:09.187Z,243.37
2023-05-14T00:15:09.165Z,241.87
2023-05-14T00:16:09.244Z,244.37
2023-05-14T00:17:09.217Z,244.13
2023-05-14T00:18:09.277Z,242.38
2023-05-14T00:19:09.432Z,244.43
2023-05-14T00:20:09.250Z,245.69
2023-05-14T00:21:09.249Z,243.74
2023-05-14T00:22:09.259Z,245.66
2023-05-14T00:23:09.408Z,246.12
2023-05-14T00:24:09.253Z,242.27
2023-05-14T00:25:09.320Z,242.36
2023-05-14T00:26:09.272Z,242.17
2023-05-14T00:27:09.292Z,243.74
2023-05-14T00:28:09.282Z,241.83
2023-05-14T00:29:09.291Z,245.20
2023-05-14T00:30:09.269Z,246.84
2023-05-14T00:31:09.336Z,242.81
2023-05-14T00:32:09.331Z,244.86
2023-05-14T00:33:09.317Z,244.70
2023-05-14T00:34:09.259Z,244.34
2023-05-14T00:35:09.336Z,244.34
2023-05-14T00:36:09.303Z,242.14
2023-05-14T00:37:09.281Z,243.38
2023-05-14T00:38:09.357Z,244.92
2023-05-14T00:39:09.314Z,244.74
2023-05-14T00:40:09.362Z,246.03
2023-05-14T00:41:09.328Z,241.10
2023-05-14T00:42:09.303Z,241.39
2023-05-14T00:43:09.323Z,243.72
2023-05-14T00:44:09.337Z,241.66
2023-05-14T00:45:09.351Z,242.68
2023-05-14T00:46:09.366Z,242.63
2023-05-14T00:47:09.420Z,243.23
2023-05-14T00:48:09.443Z,244.71
2023-05-14T00:49:09.353Z,243.16
2023-05-14T00:50:09.364Z,244.97
2023-05-14T00:51:09.357Z,245.12
2023-05-14T00:52:09.384Z,244.19
2023-05-14T00:53:09.402Z,240.94
2023-05-14T00:54:09.413Z,243.21
2023-05-14T00:55:09.398Z,246.67
2023-05-14T00:56:09.422Z,246.20
2023-05-14T00:57:09.425Z,244.13
2023-05-14T00:58:09.418Z,245.60
2023-05-14T00:59:09.425Z,247.88
2023-05-14T01:00:09.437Z,247.41
2023-05-14T01:01:09.499Z,244.38
2023-05-14T01:02:09.456Z,243.81
2023-05-14T01:03:09.551Z,248.82
2023-05-14T01:04:09.431Z,245.09
2023-05-14T01:05:09.424Z,249.05
2023-05-14T01:06:09.429Z,246.49
2023-05-14T01:07:09.440Z,245.62
2023-05-14T01:08:09.458Z,248.51
2023-05-14T01:09:09.453Z,243.35
2023-05-14T01:10:09.446Z,248.82
2023-05-14T01:11:09.480Z,243.49
2023-05-14T01:12:09.482Z,243.14
2023-05-14T01:13:09.502Z,246.77
2023-05-14T01:14:09.453Z,243.67
2023-05-14T01:15:09.467Z,248.36
2023-05-14T01:16:09.529Z,247.09
2023-05-14T01:17:09.510Z,246.99
2023-05-14T01:18:09.627Z,245.09
2023-05-14T01:19:09.688Z,245.28
2023-05-14T01:20:09.506Z,248.64
2023-05-14T01:21:09.471Z,246.25
2023-05-14T01:22:09.539Z,246.82
2023-05-14T01:23:09.505Z,243.56
2023-05-14T01:24:09.555Z,242.98
2023-05-14T01:25:09.517Z,245.40
2023-05-14T01:26:09.578Z,244.83
2023-05-14T01:27:09.593Z,247.14
2023-05-14T01:28:09.587Z,244.97
2023-05-14T01:29:09.596Z,244.73
2023-05-14T01:30:09.573Z,241.98
2023-05-14T01:31:09.598Z,246.77
2023-05-14T01:32:09.758Z,246.25
2023-05-14T01:33:09.645Z,244.49
2023-05-14T01:34:09.651Z,242.97
2023-05-14T01:35:09.696Z,247.62
2023-05-14T01:36:09.678Z,243.03
2023-05-14T01:37:09.688Z,246.41
2023-05-14T01:38:09.727Z,242.82
2023-05-14T01:39:09.732Z,245.83
2023-05-14T01:40:09.724Z,242.60
2023-05-14T01:41:09.712Z,244.18
2023-05-14T01:42:09.777Z,244.31
2023-05-14T01:43:09.805Z,244.93
2023-05-14T01:44:09.767Z,239.63
2023-05-14T01:45:09.807Z,246.26
2023-05-14T01:46:09.915Z,242.91
2023-05-14T01:47:09.820Z,244.28
2023-05-14T01:48:09.874Z,249.58
2023-05-14T01:49:09.848Z,247.34
2023-05-14T01:50:09.872Z,247.25
2023-05-14T01:51:09.878Z,243.21
2023-05-14T01:52:09.880Z,246.94
2023-05-14T01:53:09.932Z,244.99
2023-05-14T01:54:09.889Z,243.33
2023-05-14T01:55:09.941Z,242.41
2023-05-14T01:56:09.977Z,249.29
2023-05-14T01:57:10.071Z,244.50
2023-05-14T01:58:09.996Z,246.99
2023-05-14T01:59:10.009Z,244.73
2023-05-14T02:00:10.045Z,246.47
2023-05-14T02:01:10.093Z,245.90
2023-05-14T02:02:10.078Z,244.81
2023-05-14T02:03:10.122Z,242.65
2023-05-14T02:04:10.118Z,243.81
2023-05-14T02:05:10.148Z,242.37
2023-05-14T02:06:10.150Z,246.45
2023-05-14T02:07:10.136Z,243.84
2023-05-14T02:08:10.158Z,240.86
2023-05-14T02:09:10.173Z,243.16
2023-05-14T02:10:10.210Z,241.84
2023-05-14T02:11:10.223Z,241.52
2023-05-14T02:12:10.234Z,242.14
2023-05-14T02:13:10.317Z,246.78
2023-05-14T02:14:10.274Z,243.26
2023-05-14T02:15:10.318Z,247.46
2023-05-14T02:16:10.373Z,246.93
2023-05-14T02:17:10.312Z,250.00
2023-05-14T02:18:10.420Z,244.31
2023-05-14T02:19:10.502Z,240.54
2023-05-14T02:20:10.540Z,245.90
2023-05-14T02:21:10.417Z,243.17
2023-05-14T02:22:10.452Z,242.75
2023-05-14T02:23:10.474Z,240.65
2023-05-14T02:24:10.524Z,242.33
2023-05-14T02:25:10.514Z,244.87
2023-05-14T02:26:10.540Z,240.05
2023-05-14T02:27:10.518Z,246.86
2023-05-14T02:28:10.590Z,242.78
2023-05-14T02:29:10.582Z,241.97
2023-05-14T02:30:10.645Z,244.70
2023-05-14T02:31:10.611Z,245.01
2023-05-14T02:32:10.668Z,244.52
2023-05-14T02:33:10.700Z,242.75
2023-05-14T02:34:10.701Z,241.05
2023-05-14T02:35:10.722Z,242.61
2023-05-14T02:36:10.728Z,243.84
2023-05-14T02:37:10.764Z,242.89
2023-05-14T02:38:10.788Z,242.84
2023-05-14T02:39:10.746Z,246.08
2023-05-14T02:40:10.798Z,247.54
2023-05-14T02:41:10.796Z,244.44
2023-05-14T02:42:10.836Z,239.99
2023-05-14T02:43:10.840Z,241.40
2023-05-14T02:44:10.882Z,242.34
2023-05-14T02:45:10.939Z,239.51
2023-05-14T02:46:10.947Z,244.13
2023-05-14T02:47:11.053Z,243.60
2023-05-14T02:48:11.030Z,244.56
2023-05-14T02:49:10.994Z,243.79
2023-05-14T02:50:10.996Z,247.17
2023-05-14T02:51:11.049Z,244.23
2023-05-14T02:52:11.041Z,240.33
2023-05-14T02:53:11.104Z,244.49
2023-05-14T02:54:11.102Z,245.53
2023-05-14T02:55:11.125Z,242.04
2023-05-14T02:56:11.166Z,244.38
2023-05-14T02:57:11.186Z,243.24
2023-05-14T02:58:11.185Z,243.65
2023-05-14T02:59:11.198Z,244.07
2023-05-14T03:00:11.224Z,240.67
2023-05-14T03:01:11.268Z,245.22
2023-05-14T03:02:11.327Z,245.65
2023-05-14T03:03:11.354Z,246.75
2023-05-14T03:04:11.340Z,244.56
2023-05-14T03:05:11.340Z,246.74
2023-05-14T03:06:11.369Z,244.80
2023-05-14T03:07:11.373Z,244.69
2023-05-14T03:08:11.416Z,245.37
2023-05-14T03:09:11.471Z,247.26
2023-05-14T03:10:11.438Z,242.37
2023-05-14T03:11:11.492Z,245.30
2023-05-14T03:12:11.526Z,242.17
2023-05-14T03:13:11.553Z,244.77
2023-05-14T03:14:11.578Z,245.37
2023-05-14T03:15:11.657Z,247.33
2023-05-14T03:16:11.681Z,244.10
2023-05-14T03:17:11.820Z,243.52
2023-05-14T03:18:11.673Z,247.06
2023-05-14T03:19:11.867Z,245.79
2023-05-14T03:20:11.688Z,247.86
2023-05-14T03:21:11.714Z,243.35
2023-05-14T03:22:11.777Z,249.10
2023-05-14T03:23:11.810Z,245.65
2023-05-14T03:24:11.805Z,242.17
2023-05-14T03:25:11.862Z,248.21
2023-05-14T03:26:11.887Z,247.47
2023-05-14T03:27:11.948Z,250.00
2023-05-14T03:28:11.947Z,245.06
2023-05-14T03:29:11.926Z,246.87
2023-05-14T03:30:11.998Z,244.02
2023-05-14T03:31:12.070Z,242.01
2023-05-14T03:32:12.021Z,245.45
2023-05-14T03:33:12.061Z,246.89
2023-05-14T03:34:12.090Z,246.41
2023-05-14T03:35:12.148Z,244.11
2023-05-14T03:36:12.164Z,245.00
2023-05-14T03:37:12.166Z,247.48
2023-05-14T03:38:12.192Z,246.09
2023-05-14T03:39:12.209Z,245.32
2023-05-14T03:40:12.264Z,243.78
2023-05-14T03:41:12.297Z,244.79
2023-05-14T03:42:12.354Z,247.23
2023-05-14T03:43:12.360Z,245.75
2023-05-14T03:44:12.342Z,244.80
2023-05-14T03:45:12.405Z,244.10
2023-05-14T03:46:12.420Z,243.62
2023-05-14T03:47:12.439Z,241.94
2023-05-14T03:48:12.545Z,244.36
2023-05-14T03:49:12.576Z,243.62
2023-05-14T03:50:12.548Z,243.05
2023-05-14T03:51:12.595Z,241.40
2023-05-14T03:52:12.610Z,242.27
2023-05-14T03:53:12.603Z,242.93
2023-05-14T03:54:12.644Z,245.56
2023-05-14T03:55:12.642Z,242.08
2023-05-14T03:56:12.706Z,241.75
2023-05-14T03:57:12.736Z,242.08
2023-05-14T03:58:12.782Z,244.08
2023-05-14T03:59:12.794Z,242.88
2023-05-14T04:00:12.828Z,242.12
2023-05-14T04:01:12.903Z,245.18
2023-05-14T04:02:12.936Z,241.00
2023-05-14T04:03:13.001Z,242.52
2023-05-14T04:04:12.968Z,246.29
2023-05-14T04:05:12.989Z,243.38
2023-05-14T04:06:13.009Z,245.46
2023-05-14T04:07:13.054Z,241.13
2023-05-14T04:08:13.098Z,243.16
2023-05-14T04:09:13.093Z,248.22
2023-05-14T04:10:13.170Z,244.01
2023-05-14T04:11:13.180Z,244.27
2023-05-14T04:12:13.183Z,246.22
2023-05-14T04:13:13.229Z,244.97
2023-05-14T04:14:13.264Z,239.90
2023-05-14T04:15:13.276Z,243.22
2023-05-14T04:16:13.380Z,242.68
2023-05-14T04:17:13.355Z,242.42
2023-05-14T04:18:13.414Z,241.77
2023-05-14T04:19:13.521Z,242.68
2023-05-14T04:20:13.403Z,244.82
2023-05-14T04:21:13.478Z,245.44
2023-05-14T04:22:13.498Z,243.28
2023-05-14T04:23:13.536Z,241.54
2023-05-14T04:24:13.587Z,245.26
2023-05-14T04:25:13.582Z,241.52
2023-05-14T04:26:13.633Z,242.64
2023-05-14T04:27:13.650Z,242.28
2023-05-14T04:28:13.693Z,244.21
2023-05-14T04:29:13.747Z,242.91
2023-05-14T04:30:13.803Z,246.06
2023-05-14T04:31:13.808Z,238.37
2023-05-14T04:32:13.833Z,243.91
2023-05-14T04:33:13.839Z,244.03
2023-05-14T04:34:13.873Z,244.08
2023-05-14T04:35:13.882Z,246.27
2023-05-14T04:36:13.922Z,241.66
2023-05-14T04:37:13.987Z,245.82
2023-05-14T04:38:13.983Z,243.41
2023-05-14T04:39:14.007Z,246.53
2023-05-14T04:40:14.043Z,241.71
2023-05-14T04:41:14.050Z,243.61
2023-05-14T04:42:14.097Z,240.73
2023-05-14T04:43:14.102Z,242.31
2023-05-14T04:44:14.145Z,242.23
2023-05-14T04:45:14.181Z,245.52
2023-05-14T04:46:14.281Z,242.74
2023-05-14T04:47:14.219Z,246.95
2023-05-14T04:48:14.270Z,238.87
2023-05-14T04:49:14.242Z,242.56
2023-05-14T04:50:14.387Z,242.83
2023-05-14T04:51:14.269Z,243.69
2023-05-14T04:52:14.327Z,240.17
2023-05-14T04:53:14.372Z,239.23
2023-05-14T04:54:14.380Z,245.14
2023-05-14T04:55:14.407Z,242.93
2023-05-14T04:56:14.398Z,243.43
2023-05-14T04:57:14.412Z,243.66
2023-05-14T04:58:14.453Z,242.51
2023-05-14T04:59:14.468Z,241.27
2023-05-14T05:00:14.501Z,244.84
2023-05-14T05:01:14.568Z,244.77
2023-05-14T05:02:14.544Z,244.05
2023-05-14T05:03:14.719Z,243.10
2023-05-14T05:04:14.621Z,240.91
2023-05-14T05:05:14.627Z,244.32
2023-05-14T05:06:14.624Z,243.35
2023-05-14T05:07:14.663Z,238.79
2023-05-14T05:08:14.691Z,240.32
2023-05-14T05:09:14.700Z,244.17
2023-05-14T05:10:14.768Z,245.13
2023-05-14T05:11:14.750Z,244.55
2023-05-14T05:12:14.779Z,242.79
2023-05-14T05:13:14.783Z,242.47
2023-05-14T05:14:14.815Z,243.27
2023-05-14T05:15:14.877Z,240.36
2023-05-14T05:16:14.962Z,243.54
2023-05-14T05:17:14.918Z,243.84
2023-05-14T05:18:14.933Z,243.78
2023-05-14T05:19:15.048Z,242.51
2023-05-14T05:20:14.951Z,246.57
2023-05-14T05:21:14.981Z,241.12
2023-05-14T05:22:15.009Z,243.54
2023-05-14T05:23:15.139Z,241.02
2023-05-14T05:24:15.080Z,244.81
2023-05-14T05:25:15.154Z,243.50
2023-05-14T05:26:15.155Z,247.10
2023-05-14T05:27:15.152Z,244.34
2023-05-14T05:28:15.190Z,245.65
2023-05-14T05:29:15.175Z,241.82
2023-05-14T05:30:15.266Z,244.47
2023-05-14T05:31:16.576Z,239.91
2023-05-14T05:32:15.282Z,244.62
2023-05-14T05:33:15.325Z,244.26
2023-05-14T05:34:15.302Z,243.57
2023-05-14T05:35:15.354Z,242.80
2023-05-14T05:36:15.358Z,242.06
2023-05-14T05:37:15.433Z,245.86
2023-05-14T05:38:15.473Z,248.53
2023-05-14T05:39:15.486Z,244.94
2023-05-14T05:40:15.479Z,245.74
2023-05-14T05:41:15.474Z,243.61
2023-05-14T05:42:15.565Z,246.26
2023-05-14T05:43:15.540Z,245.86
2023-05-14T05:44:15.605Z,248.62
2023-05-14T05:45:15.609Z,245.91
2023-05-14T05:46:15.659Z,244.72
2023-05-14T05:47:15.646Z,246.83
2023-05-14T05:48:15.684Z,244.20
2023-05-14T05:49:15.709Z,245.95
2023-05-14T05:50:15.696Z,245.55
2023-05-14T05:51:15.733Z,245.91
2023-05-14T05:52:15.767Z,243.70
2023-05-14T05:53:15.786Z,242.90
2023-05-14T05:54:15.805Z,242.15
2023-05-14T05:55:15.859Z,248.07
2023-05-14T05:56:15.821Z,244.73
2023-05-14T05:57:15.865Z,245.22
2023-05-14T05:58:15.916Z,242.04
2023-05-14T05:59:15.921Z,242.86
2023-05-14T06:00:15.919Z,239.60
2023-05-14T06:01:15.986Z,243.60
2023-05-14T06:02:16.051Z,241.42
2023-05-14T06:03:16.040Z,239.26
2023-05-14T06:04:16.056Z,241.23
2023-05-14T06:05:16.129Z,242.71
2023-05-14T06:06:16.080Z,240.29
2023-05-14T06:07:16.061Z,240.47
2023-05-14T06:08:16.159Z,244.53
2023-05-14T06:09:16.132Z,244.42
2023-05-14T06:10:16.163Z,243.27
2023-05-14T06:11:16.175Z,241.13
2023-05-14T06:12:16.192Z,241.21
2023-05-14T06:13:16.285Z,238.73
2023-05-14T06:14:16.234Z,244.18
2023-05-14T06:15:16.234Z,243.29
2023-05-14T06:16:16.299Z,244.46
2023-05-14T06:17:16.279Z,244.52
2023-05-14T06:18:16.274Z,243.99
2023-05-14T06:19:16.426Z,241.76
2023-05-14T06:20:16.325Z,244.31
2023-05-14T06:21:16.384Z,244.90
2023-05-14T06:22:16.405Z,241.63
2023-05-14T06:23:16.387Z,239.10
2023-05-14T06:24:16.445Z,243.35
2023-05-14T06:25:16.435Z,239.48
2023-05-14T06:26:16.437Z,242.61
2023-05-14T06:27:16.487Z,242.48
2023-05-14T06:28:16.492Z,241.73
2023-05-14T06:29:16.490Z,243.59
2023-05-14T06:30:16.514Z,243.78
2023-05-14T06:31:16.534Z,245.34
2023-05-14T06:32:16.580Z,242.63
2023-05-14T06:33:17.011Z,244.02
2023-05-14T06:34:16.561Z,239.81
2023-05-14T06:35:16.590Z,240.02
2023-05-14T06:36:16.607Z,240.17
2023-05-14T06:37:16.613Z,242.36
2023-05-14T06:38:16.662Z,241.32
2023-05-14T06:39:16.644Z,243.28
2023-05-14T06:40:16.635Z,239.16
2023-05-14T06:41:16.682Z,243.38
2023-05-14T06:42:16.687Z,243.95
2023-05-14T06:43:16.701Z,241.69
2023-05-14T06:44:16.706Z,244.02
2023-05-14T06:45:16.734Z,246.41
2023-05-14T06:46:16.734Z,239.70
2023-05-14T06:47:16.761Z,243.79
2023-05-14T06:48:16.825Z,239.59
2023-05-14T06:49:16.868Z,246.05
2023-05-14T06:50:16.795Z,242.68
2023-05-14T06:51:16.813Z,243.03
2023-05-14T06:52:16.825Z,242.38
2023-05-14T06:53:16.874Z,242.66
2023-05-14T06:54:16.835Z,245.68
2023-05-14T06:55:16.870Z,242.26
2023-05-14T06:56:16.912Z,240.01
2023-05-14T06:57:16.884Z,241.54
2023-05-14T06:58:16.967Z,236.82
2023-05-14T06:59:16.950Z,239.31
2023-05-14T07:00:16.977Z,243.09
2023-05-14T07:01:17.118Z,242.07
2023-05-14T07:02:16.965Z,239.74
2023-05-14T07:03:16.999Z,241.61
2023-05-14T07:04:17.033Z,243.46
2023-05-14T07:05:17.006Z,242.43
2023-05-14T07:06:17.021Z,243.07
2023-05-14T07:07:17.021Z,239.79
2023-05-14T07:08:17.071Z,242.11
2023-05-14T07:09:17.044Z,241.44
2023-05-14T07:10:17.023Z,242.26
2023-05-14T07:11:17.051Z,242.74
2023-05-14T07:12:17.044Z,240.55
2023-05-14T07:13:17.244Z,242.18
2023-05-14T07:14:17.111Z,241.26
2023-05-14T07:15:17.141Z,239.29
2023-05-14T07:16:17.093Z,242.57
2023-05-14T07:17:17.225Z,243.17
2023-05-14T07:18:17.188Z,241.91
2023-05-14T07:19:17.279Z,239.83
2023-05-14T07:20:17.227Z,242.79
2023-05-14T07:21:17.156Z,241.92
2023-05-14T07:22:17.166Z,240.75
2023-05-14T07:23:19.203Z,239.47
2023-05-14T07:24:17.182Z,242.25
2023-05-14T07:25:17.198Z,243.99
2023-05-14T07:26:17.150Z,242.75
2023-05-14T07:27:17.180Z,242.98
2023-05-14T07:28:17.166Z,242.64
2023-05-14T07:29:17.124Z,240.32
2023-05-14T07:30:17.143Z,238.36
2023-05-14T07:31:17.163Z,245.48
2023-05-14T07:32:17.132Z,243.24
2023-05-14T07:33:17.127Z,242.49
2023-05-14T07:34:17.113Z,239.99
2023-05-14T07:35:17.103Z,242.21
2023-05-14T07:36:17.103Z,246.12
2023-05-14T07:37:17.086Z,243.75
2023-05-14T07:38:17.088Z,240.77
2023-05-14T07:39:17.065Z,241.69
2023-05-14T07:40:17.072Z,242.17
2023-05-14T07:41:17.079Z,243.63
2023-05-14T07:42:27.958Z,241.57
2023-05-14T07:43:18.041Z,241.87
2023-05-14T07:44:17.068Z,242.47
2023-05-14T07:45:17.027Z,242.14
2023-05-14T07:46:17.061Z,241.58
2023-05-14T07:47:17.150Z,244.98
2023-05-14T07:48:17.032Z,240.09
2023-05-14T07:49:17.034Z,241.81
2023-05-14T07:50:17.001Z,242.41
2023-05-14T07:51:17.062Z,241.66
2023-05-14T07:52:16.971Z,241.68
2023-05-14T07:53:16.979Z,241.46
2023-05-14T07:54:17.013Z,240.10
2023-05-14T07:55:16.974Z,241.57
2023-05-14T07:56:17.010Z,241.41
2023-05-14T07:57:16.945Z,241.94
2023-05-14T07:58:16.947Z,239.15
2023-05-14T07:59:16.912Z,240.35
2023-05-14T08:00:16.950Z,238.51
2023-05-14T08:01:16.897Z,239.17
2023-05-14T08:02:17.290Z,241.85
2023-05-14T08:03:16.976Z,239.16
2023-05-14T08:04:17.046Z,241.22
2023-05-14T08:05:16.907Z,241.52
2023-05-14T08:06:16.893Z,238.76
2023-05-14T08:07:16.910Z,238.64
2023-05-14T08:08:16.877Z,237.85
2023-05-14T08:09:16.902Z,235.76
2023-05-14T08:10:16.921Z,240.07
2023-05-14T08:11:17.051Z,237.38
2023-05-14T08:12:17.066Z,237.62
2023-05-14T08:13:17.049Z,240.67
2023-05-14T08:14:17.129Z,238.61
2023-05-14T08:15:17.137Z,239.48
2023-05-14T08:16:17.205Z,238.38
2023-05-14T08:17:17.285Z,238.94
2023-05-14T08:18:17.257Z,237.41
2023-05-14T08:19:17.376Z,237.97
2023-05-14T08:20:17.334Z,237.61
2023-05-14T08:21:17.421Z,239.13
2023-05-14T08:22:17.448Z,235.76
2023-05-14T08:23:17.501Z,238.75
2023-05-14T08:24:17.569Z,240.97
2023-05-14T08:25:17.677Z,236.03
2023-05-14T08:26:17.668Z,238.29
2023-05-14T08:27:17.797Z,238.57
2023-05-14T08:28:17.839Z,238.12
2023-05-14T08:29:17.863Z,236.56
2023-05-14T08:30:17.890Z,236.19
2023-05-14T08:31:18.023Z,240.24
2023-05-14T08:32:23.201Z,236.96
2023-05-14T08:33:19.036Z,237.21
2023-05-14T08:34:18.012Z,237.27
2023-05-14T08:35:18.012Z,238.74
2023-05-14T08:36:18.004Z,239.79
2023-05-14T08:37:18.005Z,237.99
2023-05-14T08:38:17.978Z,238.49
2023-05-14T08:39:17.984Z,239.96
2023-05-14T08:40:17.991Z,241.33
2023-05-14T08:41:18.034Z,241.20
2023-05-14T08:42:18.096Z,240.78
2023-05-14T08:43:18.154Z,238.05
2023-05-14T08:44:18.188Z,239.60
2023-05-14T08:45:18.247Z,238.83
2023-05-14T08:46:18.275Z,241.84
2023-05-14T08:47:18.347Z,238.92
2023-05-14T08:48:18.423Z,238.02
2023-05-14T08:49:18.458Z,234.21
2023-05-14T08:50:19.924Z,237.09
2023-05-14T08:51:18.479Z,241.03
2023-05-14T08:52:18.497Z,234.18
2023-05-14T08:53:18.484Z,237.23
2023-05-14T08:54:18.480Z,241.48
2023-05-14T08:55:18.518Z,239.78
2023-05-14T08:56:18.436Z,238.64
2023-05-14T08:57:18.453Z,241.51
2023-05-14T08:58:18.454Z,235.62
2023-05-14T08:59:18.439Z,238.26
2023-05-14T09:00:18.430Z,236.17
2023-05-14T09:01:18.553Z,237.92
2023-05-14T09:02:18.429Z,236.19
2023-05-14T09:03:18.443Z,237.04
2023-05-14T09:04:18.434Z,234.41
2023-05-14T09:05:18.415Z,235.87
2023-05-14T09:06:18.423Z,239.03
2023-05-14T09:07:18.439Z,236.89
2023-05-14T09:08:18.342Z,237.69
2023-05-14T09:09:18.395Z,234.02
2023-05-14T09:10:18.362Z,236.18
2023-05-14T09:11:18.335Z,233.97
2023-05-14T09:12:18.388Z,234.31
2023-05-14T09:13:18.362Z,236.67
2023-05-14T09:14:18.349Z,232.55
2023-05-14T09:15:18.318Z,235.18
2023-05-14T09:16:18.385Z,234.69
2023-05-14T09:17:18.345Z,234.96
2023-05-14T09:18:18.334Z,235.06
2023-05-14T09:19:18.350Z,236.09
2023-05-14T09:20:18.291Z,235.45
2023-05-14T09:21:18.323Z,231.58
2023-05-14T09:22:18.267Z,235.34
2023-05-14T09:23:18.261Z,233.39
2023-05-14T09:24:18.282Z,233.52
2023-05-14T09:25:18.251Z,233.72
2023-05-14T09:26:18.292Z,233.03
2023-05-14T09:27:18.342Z,233.05
2023-05-14T09:28:18.380Z,235.16
2023-05-14T09:29:18.503Z,235.10
2023-05-14T09:30:18.498Z,232.92
2023-05-14T09:31:18.650Z,234.67
2023-05-14T09:32:18.581Z,232.41
2023-05-14T09:33:18.626Z,232.68
2023-05-14T09:34:18.664Z,232.36
2023-05-14T09:35:18.722Z,232.91
2023-05-14T09:36:18.751Z,234.34
2023-05-14T09:37:18.828Z,231.49
2023-05-14T09:38:18.868Z,238.73
2023-05-14T09:39:18.922Z,232.13
2023-05-14T09:40:18.949Z,228.50
2023-05-14T09:41:18.975Z,234.43
2023-05-14T09:42:19.010Z,231.93
2023-05-14T09:43:19.082Z,232.75
2023-05-14T09:44:19.133Z,233.60
2023-05-14T09:45:19.150Z,232.32
2023-05-14T09:46:19.204Z,232.39
2023-05-14T09:47:19.255Z,231.16
2023-05-14T09:48:19.278Z,231.37
2023-05-14T09:49:19.315Z,231.57
2023-05-14T09:50:19.321Z,234.85
2023-05-14T09:51:19.733Z,232.25
2023-05-14T09:52:19.416Z,231.10
2023-05-14T09:53:19.410Z,233.60
2023-05-14T09:54:19.473Z,233.38
2023-05-14T09:55:19.508Z,232.68
2023-05-14T09:56:19.520Z,234.18
2023-05-14T09:57:19.577Z,231.97
2023-05-14T09:58:19.615Z,234.77
2023-05-14T09:59:19.785Z,236.67
2023-05-14T10:00:19.640Z,232.23
2023-05-14T10:01:19.765Z,229.76
2023-05-14T10:02:19.739Z,233.91
2023-05-14T10:03:20.176Z,235.39
2023-05-14T10:04:19.862Z,235.83
2023-05-14T10:05:19.881Z,229.73
2023-05-14T10:06:19.892Z,234.78
2023-05-14T10:07:19.951Z,231.93
2023-05-14T10:08:19.959Z,233.36
2023-05-14T10:09:19.969Z,233.29
2023-05-14T10:10:20.123Z,233.73
2023-05-14T10:11:20.022Z,231.49
2023-05-14T10:12:20.028Z,233.35
2023-05-14T10:13:20.081Z,235.64
2023-05-14T10:14:20.104Z,234.24
2023-05-14T10:15:20.172Z,235.33
2023-05-14T10:16:20.289Z,234.94
2023-05-14T10:17:20.256Z,235.55
2023-05-14T10:18:20.267Z,235.16
2023-05-14T10:19:20.367Z,236.43
2023-05-14T10:20:20.337Z,234.05
2023-05-14T10:21:20.301Z,233.01
2023-05-14T10:22:20.339Z,230.81
2023-05-14T10:23:20.378Z,234.92
2023-05-14T10:24:20.386Z,234.03
2023-05-14T10:25:20.427Z,231.11
2023-05-14T10:26:22.358Z,230.43
2023-05-14T10:27:20.456Z,235.12
2023-05-14T10:28:20.445Z,235.50
2023-05-14T10:29:20.423Z,234.63
2023-05-14T10:30:20.433Z,233.03
2023-05-14T10:31:20.430Z,232.92
2023-05-14T10:32:20.410Z,236.63
2023-05-14T10:33:20.378Z,233.68
2023-05-14T10:34:20.403Z,234.90
2023-05-14T10:35:20.444Z,236.91
2023-05-14T10:36:20.385Z,233.83
2023-05-14T10:37:20.384Z,234.17
2023-05-14T10:38:20.391Z,233.22
2023-05-14T10:39:20.355Z,232.87
2023-05-14T10:40:20.354Z,233.83
2023-05-14T10:41:20.352Z,234.47
2023-05-14T10:42:20.305Z,235.09
2023-05-14T10:43:20.315Z,236.43
2023-05-14T10:44:20.734Z,231.84
2023-05-14T10:45:20.330Z,234.33
2023-05-14T10:46:20.378Z,233.98
2023-05-14T10:47:20.308Z,234.10
2023-05-14T10:48:20.372Z,232.38
2023-05-14T10:49:28.914Z,233.55
2023-05-14T10:50:21.268Z,233.80
2023-05-14T10:51:20.286Z,234.27
2023-05-14T10:52:20.273Z,234.30
2023-05-14T10:53:20.262Z,234.70
2023-05-14T10:54:20.243Z,236.10
2023-05-14T10:55:20.271Z,234.21
2023-05-14T10:56:20.270Z,238.33
2023-05-14T10:57:20.248Z,235.24
2023-05-14T10:58:20.200Z,234.82
2023-05-14T10:59:20.211Z,236.83
2023-05-14T11:00:20.188Z,233.02
2023-05-14T11:01:20.234Z,232.35
2023-05-14T11:02:20.241Z,235.93
2023-05-14T11:03:20.211Z,235.23
2023-05-14T11:04:20.256Z,233.36
2023-05-14T11:05:20.147Z,235.89
2023-05-14T11:06:20.164Z,233.14
2023-05-14T11:07:20.144Z,237.32
2023-05-14T11:08:20.156Z,238.46
2023-05-14T11:09:20.149Z,233.82
2023-05-14T11:10:20.140Z,233.86
2023-05-14T11:11:20.146Z,233.71
2023-05-14T11:12:20.167Z,235.78
2023-05-14T11:13:20.174Z,234.57
2023-05-14T11:14:20.192Z,233.76
2023-05-14T11:15:20.202Z,236.34
2023-05-14T11:16:23.852Z,233.50
2023-05-14T11:17:20.253Z,240.32
2023-05-14T11:18:20.217Z,236.37
2023-05-14T11:19:20.218Z,238.07
2023-05-14T11:20:20.192Z,234.74
2023-05-14T11:21:20.233Z,237.92
2023-05-14T11:22:20.203Z,236.19
2023-05-14T11:23:20.170Z,237.59
2023-05-14T11:24:20.204Z,237.28
2023-05-14T11:25:20.238Z,236.17
2023-05-14T11:26:21.660Z,234.38
2023-05-14T11:27:20.137Z,236.40
2023-05-14T11:28:20.139Z,236.71
2023-05-14T11:29:20.142Z,237.46
2023-05-14T11:30:20.183Z,235.90
2023-05-14T11:31:20.118Z,234.94
2023-05-14T11:32:20.120Z,237.45
2023-05-14T11:33:20.161Z,239.95
2023-05-14T11:34:20.110Z,240.17
2023-05-14T11:35:20.091Z,235.78
2023-05-14T11:36:20.101Z,237.30
2023-05-14T11:37:20.073Z,236.11
2023-05-14T11:38:20.072Z,232.36
2023-05-14T11:39:20.050Z,237.37
2023-05-14T11:40:20.052Z,240.28
2023-05-14T11:41:20.019Z,235.43
2023-05-14T11:42:20.087Z,239.09
2023-05-14T11:43:20.073Z,236.39
2023-05-14T11:44:20.013Z,234.53
2023-05-14T11:45:20.023Z,237.85
2023-05-14T11:46:20.168Z,239.17
2023-05-14T11:47:20.006Z,237.34
2023-05-14T11:48:20.011Z,239.25
2023-05-14T11:49:19.983Z,233.90
2023-05-14T11:50:20.005Z,239.65
2023-05-14T11:51:19.991Z,233.79
2023-05-14T11:52:19.968Z,234.20
2023-05-14T11:53:19.951Z,235.83
2023-05-14T11:54:19.939Z,236.80
2023-05-14T11:55:19.948Z,240.21
2023-05-14T11:56:19.932Z,239.44
2023-05-14T11:57:19.956Z,238.65
2023-05-14T11:58:19.941Z,235.65
2023-05-14T11:59:19.893Z,236.49
2023-05-14T12:00:19.924Z,235.80
2023-05-14T12:01:19.883Z,238.66
2023-05-14T12:02:20.013Z,234.43
2023-05-14T12:03:20.114Z,238.19
2023-05-14T12:04:19.939Z,238.95
2023-05-14T12:05:19.881Z,236.47
2023-05-14T12:06:19.860Z,237.67
2023-05-14T12:07:19.984Z,238.12
2023-05-14T12:08:19.897Z,238.40
2023-05-14T12:09:19.828Z,238.16
2023-05-14T12:10:19.844Z,239.10
2023-05-14T12:11:19.849Z,235.75
2023-05-14T12:12:19.859Z,236.56
2023-05-14T12:13:19.870Z,235.74
2023-05-14T12:14:19.881Z,236.49
2023-05-14T12:15:19.901Z,236.31
2023-05-14T12:16:19.982Z,238.95
2023-05-14T12:17:19.911Z,235.13
2023-05-14T12:18:24.704Z,236.02
2023-05-14T12:19:20.986Z,236.20
2023-05-14T12:20:19.918Z,236.25
2023-05-14T12:21:19.914Z,236.10
2023-05-14T12:22:19.892Z,237.35
2023-05-14T12:23:19.937Z,235.71
2023-05-14T12:24:19.946Z,235.14
2023-05-14T12:25:19.904Z,234.66
2023-05-14T12:26:19.909Z,235.44
2023-05-14T12:27:19.878Z,237.44
2023-05-14T12:28:19.854Z,237.87